Time;durP1;ratioP1;P1;durP2;ratioP2;P2;SDS_P1;SDS_P2;PMS_P1;PMS_P2;Temp;Humidity;BMP_temperature;BMP_pressure;BME280_temperature;BME280_humidity;BME280_pressure;Samples;Min_cycle;Max_cycle;Signal;HPM_P1;HPM_P2
2022/10/12 00:01:14;;;;;;;24.45;20.08;;;;;;;;;;10103765;28;20041;-70
2022/10/12 00:06:30;;;;;;;24.67;20.35;;;;;;;;;;10098421;28;20045;-70
2022/10/12 00:11:27;;;;;;;23.88;20.52;;;;;;;;;;10096637;28;20045;-70
2022/10/12 00:16:22;;;;;;;26.38;22.08;;;;;;;;;;10093900;28;20536;-69
2022/10/12 00:21:16;;;;;;;29.85;22.58;;;;;;;;;;10082773;28;20495;-70
2022/10/12 00:26:19;;;;;;;29.27;21.38;;;;;;;;;;10099303;28;20106;-70
2022/10/12 00:31:16;;;;;;;25.25;21.35;;;;;;;;;;10106463;28;20057;-69
2022/10/12 00:36:25;;;;;;;28.42;21.00;;;;;;;;;;10103666;28;20087;-70
2022/10/12 00:41:21;;;;;;;22.65;19.95;;;;;;;;;;10094141;28;20203;-69
2022/10/12 00:46:13;;;;;;;26.83;20.35;;;;;;;;;;10104556;28;20048;-69
2022/10/12 00:51:07;;;;;;;27.90;21.13;;;;;;;;;;10100641;28;20080;-70
2022/10/12 00:56:03;;;;;;;27.48;22.25;;;;;;;;;;10102713;28;20091;-69
2022/10/12 01:01:02;;;;;;;23.77;20.98;;;;;;;;;;10103782;28;20118;-70
2022/10/12 01:05:56;;;;;;;23.83;19.80;;;;;;;;;;10085383;28;20053;-69
2022/10/12 01:10:49;;;;;;;26.98;20.90;;;;;;;;;;10082313;28;20049;-69
2022/10/12 01:15:58;;;;;;;20.90;18.17;;;;;;;;;;10098979;28;20049;-69
2022/10/12 01:21:17;;;;;;;30.08;21.52;;;;;;;;;;10094608;28;20140;-70
2022/10/12 01:26:36;;;;;;;24.35;20.90;;;;;;;;;;10101392;28;20045;-69
2022/10/12 01:31:40;;;;;;;22.67;19.25;;;;;;;;;;10101314;28;20076;-69
2022/10/12 01:36:43;;;;;;;26.83;19.60;;;;;;;;;;10100422;28;20055;-70
2022/10/12 01:41:39;;;;;;;29.77;21.08;;;;;;;;;;10095988;28;20043;-69
2022/10/12 01:46:33;;;;;;;24.55;21.02;;;;;;;;;;10093996;28;20072;-70
2022/10/12 01:51:55;;;;;;;27.92;24.05;;;;;;;;;;10093288;28;20044;-70
2022/10/12 01:57:01;;;;;;;27.25;21.42;;;;;;;;;;10087901;28;20049;-70
2022/10/12 02:02:25;;;;;;;28.92;22.90;;;;;;;;;;10096496;28;20443;-70
2022/10/12 02:07:28;;;;;;;27.50;21.73;;;;;;;;;;10098918;28;20049;-71
2022/10/12 02:12:23;;;;;;;31.73;22.00;;;;;;;;;;10093224;28;20122;-70
2022/10/12 02:17:17;;;;;;;30.38;22.15;;;;;;;;;;10100903;28;20457;-69
2022/10/12 02:22:11;;;;;;;28.98;23.42;;;;;;;;;;10099570;28;20044;-70
2022/10/12 02:27:07;;;;;;;30.55;24.75;;;;;;;;;;10101989;28;20053;-70
2022/10/12 02:32:03;;;;;;;40.78;25.58;;;;;;;;;;10095124;28;20045;-69
2022/10/12 02:37:10;;;;;;;30.98;23.20;;;;;;;;;;10098746;28;20049;-69
2022/10/12 02:42:08;;;;;;;28.33;22.48;;;;;;;;;;10092429;28;20045;-69
2022/10/12 02:47:03;;;;;;;32.53;22.58;;;;;;;;;;10098484;28;20107;-69
2022/10/12 02:51:57;;;;;;;27.58;22.77;;;;;;;;;;10091508;28;20385;-68
2022/10/12 02:56:51;;;;;;;29.40;22.98;;;;;;;;;;10091461;28;20049;-68
2022/10/12 03:01:45;;;;;;;24.15;20.35;;;;;;;;;;10093539;28;20067;-68
2022/10/12 03:06:39;;;;;;;24.90;21.05;;;;;;;;;;10101070;28;20041;-68
2022/10/12 03:11:32;;;;;;;30.65;22.75;;;;;;;;;;10097174;28;20048;-68
2022/10/12 03:16:26;;;;;;;28.58;22.70;;;;;;;;;;10085096;28;20068;-67
2022/10/12 03:21:19;;;;;;;28.08;22.63;;;;;;;;;;10095000;28;20053;-68
2022/10/12 03:26:14;;;;;;;33.42;23.92;;;;;;;;;;10102846;28;20450;-67
2022/10/12 03:31:08;;;;;;;27.60;21.92;;;;;;;;;;10097544;28;20040;-68
2022/10/12 03:36:02;;;;;;;28.52;23.42;;;;;;;;;;10095994;28;20069;-68
2022/10/12 03:40:56;;;;;;;26.85;21.25;;;;;;;;;;10098481;28;20111;-69
2022/10/12 03:45:49;;;;;;;25.20;21.52;;;;;;;;;;10091998;28;20057;-67
2022/10/12 03:50:42;;;;;;;26.30;21.20;;;;;;;;;;10105092;28;20053;-67
2022/10/12 03:55:37;;;;;;;26.85;20.95;;;;;;;;;;10103559;28;20132;-67
2022/10/12 04:00:30;;;;;;;25.77;21.88;;;;;;;;;;10103196;28;20388;-68
2022/10/12 04:05:24;;;;;;;28.75;21.17;;;;;;;;;;10095365;28;20068;-68
2022/10/12 04:10:18;;;;;;;24.95;21.42;;;;;;;;;;10097044;28;20105;-67
2022/10/12 04:15:13;;;;;;;28.27;21.80;;;;;;;;;;10106606;28;20052;-67
2022/10/12 04:20:07;;;;;;;28.95;23.70;;;;;;;;;;10103226;28;20049;-68
2022/10/12 04:25:01;;;;;;;31.48;23.60;;;;;;;;;;10098061;28;20049;-68
2022/10/12 04:29:54;;;;;;;29.40;23.20;;;;;;;;;;10100479;28;20132;-68
2022/10/12 04:34:48;;;;;;;35.03;24.25;;;;;;;;;;10104893;28;20047;-68
2022/10/12 04:39:42;;;;;;;34.40;23.27;;;;;;;;;;10098463;28;20100;-68
2022/10/12 04:44:35;;;;;;;30.75;24.65;;;;;;;;;;10098891;28;20453;-68
2022/10/12 04:49:30;;;;;;;27.38;22.27;;;;;;;;;;10094800;28;20059;-67
2022/10/12 04:54:23;;;;;;;32.33;22.85;;;;;;;;;;10102680;28;20053;-67
2022/10/12 04:59:17;;;;;;;31.50;22.20;;;;;;;;;;10099100;28;20062;-65
2022/10/12 05:04:10;;;;;;;32.28;24.02;;;;;;;;;;10094761;28;20107;-67
2022/10/12 05:09:04;;;;;;;33.22;26.60;;;;;;;;;;10092951;28;20088;-67
2022/10/12 05:13:59;;;;;;;29.85;23.42;;;;;;;;;;10098169;28;20053;-68
2022/10/12 05:18:56;;;;;;;31.77;24.05;;;;;;;;;;10095426;28;20067;-68
2022/10/12 05:23:52;;;;;;;31.90;25.38;;;;;;;;;;10092782;28;20052;-68
2022/10/12 05:28:45;;;;;;;32.08;26.08;;;;;;;;;;10097849;28;20072;-69
2022/10/12 05:33:40;;;;;;;32.53;25.65;;;;;;;;;;10095701;28;20099;-68
2022/10/12 05:38:34;;;;;;;34.22;26.63;;;;;;;;;;10092278;28;20419;-67
2022/10/12 05:43:28;;;;;;;37.30;28.67;;;;;;;;;;10096564;28;20451;-68
2022/10/12 05:48:21;;;;;;;34.90;27.23;;;;;;;;;;10097295;28;20064;-71
2022/10/12 05:53:15;;;;;;;32.85;27.50;;;;;;;;;;10095188;28;20132;-71
2022/10/12 05:58:09;;;;;;;33.83;27.30;;;;;;;;;;10098486;28;20496;-72
2022/10/12 06:03:03;;;;;;;35.53;26.92;;;;;;;;;;10095629;28;20431;-71
2022/10/12 06:07:57;;;;;;;34.35;26.88;;;;;;;;;;10098957;28;20045;-74
2022/10/12 06:12:51;;;;;;;32.35;25.90;;;;;;;;;;10094093;28;20496;-70
2022/10/12 06:17:45;;;;;;;33.60;24.88;;;;;;;;;;10094247;28;20057;-67
2022/10/12 06:22:39;;;;;;;31.95;26.60;;;;;;;;;;10089869;28;20120;-70
2022/10/12 06:27:33;;;;;;;31.85;25.80;;;;;;;;;;10087483;28;20071;-69
2022/10/12 06:32:26;;;;;;;28.33;24.58;;;;;;;;;;10092842;28;20053;-69
2022/10/12 06:37:20;;;;;;;33.38;26.40;;;;;;;;;;10084562;28;20080;-69
2022/10/12 06:42:33;;;;;;;29.88;23.90;;;;;;;;;;10094482;28;20048;-70
2022/10/12 06:47:27;;;;;;;34.83;24.67;;;;;;;;;;10095808;28;20048;-75
2022/10/12 06:52:21;;;;;;;35.97;24.50;;;;;;;;;;10099393;28;20052;-70
2022/10/12 06:57:15;;;;;;;34.67;25.85;;;;;;;;;;10105820;28;20053;-69
2022/10/12 07:02:11;;;;;;;31.25;25.48;;;;;;;;;;10099328;28;20114;-69
2022/10/12 07:07:05;;;;;;;33.17;26.95;;;;;;;;;;10104267;28;20459;-69
2022/10/12 07:11:59;;;;;;;34.55;26.38;;;;;;;;;;10098622;28;20049;-69
2022/10/12 07:16:53;;;;;;;42.17;27.50;;;;;;;;;;10100733;28;20057;-70
2022/10/12 07:21:47;;;;;;;41.83;26.65;;;;;;;;;;10103807;28;20144;-77
2022/10/12 07:26:41;;;;;;;33.17;27.73;;;;;;;;;;10103926;28;20049;-75
2022/10/12 07:31:34;;;;;;;39.03;28.17;;;;;;;;;;10101383;28;20071;-74
2022/10/12 07:36:29;;;;;;;35.65;27.63;;;;;;;;;;10098466;28;20498;-75
2022/10/12 07:41:42;;;;;;;36.83;28.27;;;;;;;;;;10098726;28;20041;-76
2022/10/12 07:46:36;;;;;;;31.30;26.05;;;;;;;;;;10103271;28;20399;-76
2022/10/12 07:51:30;;;;;;;34.92;25.90;;;;;;;;;;10103915;28;20076;-76
2022/10/12 07:56:23;;;;;;;37.50;27.95;;;;;;;;;;10095035;28;20092;-75
2022/10/12 08:01:17;;;;;;;32.70;27.23;;;;;;;;;;10098922;28;20068;-76
2022/10/12 08:06:14;;;;;;;32.65;24.95;;;;;;;;;;10098324;28;20052;-77
2022/10/12 08:11:07;;;;;;;28.35;21.25;;;;;;;;;;10105244;28;20067;-76
2022/10/12 08:16:02;;;;;;;40.00;25.00;;;;;;;;;;10097642;28;20061;-76
2022/10/12 08:20:56;;;;;;;25.95;23.00;;;;;;;;;;10100102;28;20045;-72
2022/10/12 08:25:55;;;;;;;26.38;23.52;;;;;;;;;;10103743;28;20075;-72
2022/10/12 08:30:49;;;;;;;34.67;23.73;;;;;;;;;;10095191;28;20108;-72
2022/10/12 08:35:43;;;;;;;31.55;22.50;;;;;;;;;;10104803;28;20120;-72
2022/10/12 08:40:43;;;;;;;27.45;23.15;;;;;;;;;;10099815;28;20076;-72
2022/10/12 08:45:54;;;;;;;30.90;23.52;;;;;;;;;;10097484;28;20100;-72
2022/10/12 08:51:02;;;;;;;29.77;23.38;;;;;;;;;;10099674;28;20408;-72
2022/10/12 08:55:55;;;;;;;25.38;22.73;;;;;;;;;;10091122;28;20073;-72
2022/10/12 09:01:06;;;;;;;26.73;23.35;;;;;;;;;;10093631;28;20045;-73
2022/10/12 09:06:18;;;;;;;31.67;24.00;;;;;;;;;;10086742;28;20052;-73
2022/10/12 09:11:27;;;;;;;26.63;20.60;;;;;;;;;;10098604;28;20056;-73
2022/10/12 09:16:25;;;;;;;27.85;22.33;;;;;;;;;;10096249;28;20067;-73
2022/10/12 09:21:21;;;;;;;23.85;21.33;;;;;;;;;;10092686;28;20083;-73
2022/10/12 09:26:20;;;;;;;24.98;19.55;;;;;;;;;;10094721;28;20045;-74
2022/10/12 09:31:21;;;;;;;25.02;21.08;;;;;;;;;;10093707;28;20095;-74
2022/10/12 09:36:18;;;;;;;28.30;18.50;;;;;;;;;;10098928;28;20044;-74
2022/10/12 09:41:20;;;;;;;29.08;20.17;;;;;;;;;;10096713;28;20053;-73
2022/10/12 09:46:15;;;;;;;23.95;19.73;;;;;;;;;;10095676;28;20134;-74
2022/10/12 09:51:12;;;;;;;22.55;15.90;;;;;;;;;;10105625;28;20053;-74
2022/10/12 09:56:05;;;;;;;;;;;;;;;;;;10101732;28;20159;-73
2022/10/12 10:01:17;;;;;;;23.10;16.00;;;;;;;;;;10094272;28;19925;-73
2022/10/12 10:06:14;;;;;;;24.65;16.73;;;;;;;;;;10093825;28;20049;-75
2022/10/12 10:11:14;;;;;;;30.33;19.67;;;;;;;;;;10095586;28;20049;-75
2022/10/12 10:16:09;;;;;;;20.60;18.17;;;;;;;;;;10100842;28;20132;-75
2022/10/12 10:21:07;;;;;;;27.27;17.77;;;;;;;;;;10097161;28;20095;-77
2022/10/12 10:26:10;;;;;;;35.28;18.23;;;;;;;;;;10110734;28;20110;-76
2022/10/12 10:31:07;;;;;;;23.55;19.05;;;;;;;;;;10103954;28;20052;-76
2022/10/12 10:36:09;;;;;;;25.55;19.23;;;;;;;;;;10103531;28;20044;-76
2022/10/12 10:41:05;;;;;;;20.63;16.30;;;;;;;;;;10100032;28;20056;-77
2022/10/12 10:46:02;;;;;;;19.93;14.50;;;;;;;;;;10101683;28;20053;-75
2022/10/12 10:51:16;;;;;;;20.73;15.43;;;;;;;;;;10109235;28;20061;-76
2022/10/12 10:56:33;;;;;;;21.20;15.18;;;;;;;;;;10104651;28;20796;-76
2022/10/12 11:01:39;;;;;;;19.58;16.58;;;;;;;;;;10103617;28;20143;-76
2022/10/12 11:06:39;;;;;;;20.90;15.25;;;;;;;;;;10114475;28;20056;-76
2022/10/12 11:11:35;;;;;;;26.23;16.58;;;;;;;;;;10107276;28;20048;-75
2022/10/12 11:16:33;;;;;;;20.85;15.70;;;;;;;;;;10098829;28;20085;-76
2022/10/12 11:21:35;;;;;;;16.20;14.40;;;;;;;;;;10121104;28;20095;-76
2022/10/12 11:26:33;;;;;;;20.45;13.85;;;;;;;;;;10104283;28;20055;-71
2022/10/12 11:31:35;;;;;;;18.92;15.02;;;;;;;;;;10106827;28;20060;-74
2022/10/12 11:36:30;;;;;;;25.83;15.77;;;;;;;;;;10102768;28;20091;-73
2022/10/12 11:41:45;;;;;;;18.10;13.25;;;;;;;;;;10113684;28;20060;-74
2022/10/12 11:47:26;;;;;;;16.02;11.45;;;;;;;;;;10100685;28;20745;-76
2022/10/12 11:52:20;;;;;;;24.42;12.38;;;;;;;;;;10108114;28;20059;-75
2022/10/12 11:57:26;;;;;;;17.88;12.80;;;;;;;;;;10102591;28;20084;-74
2022/10/12 12:02:30;;;;;;;17.20;12.63;;;;;;;;;;10102702;28;20427;-74
2022/10/12 12:07:42;;;;;;;19.65;12.48;;;;;;;;;;10100378;28;20049;-73
2022/10/12 12:12:37;;;;;;;18.30;10.70;;;;;;;;;;10095128;28;20053;-73
2022/10/12 12:17:32;;;;;;;19.42;12.13;;;;;;;;;;10092889;28;20133;-74
2022/10/12 12:22:27;;;;;;;20.73;12.00;;;;;;;;;;10081987;28;20049;-73
2022/10/12 12:27:42;;;;;;;18.75;12.32;;;;;;;;;;10097323;28;20071;-74
2022/10/12 12:33:05;;;;;;;21.73;11.15;;;;;;;;;;10087073;28;20065;-75
2022/10/12 12:38:11;;;;;;;16.83;11.05;;;;;;;;;;10103677;28;20463;-72
2022/10/12 12:43:29;;;;;;;19.85;12.80;;;;;;;;;;10096884;28;20064;-72
2022/10/12 12:48:41;;;;;;;17.48;11.55;;;;;;;;;;10120341;28;20080;-72
2022/10/12 12:54:05;;;;;;;20.25;11.85;;;;;;;;;;10104059;28;20076;-72
2022/10/12 12:59:35;;;;;;;14.05;10.18;;;;;;;;;;10090372;28;20061;-72
2022/10/12 13:05:08;;;;;;;18.63;10.02;;;;;;;;;;10100148;28;20053;-74
2022/10/12 13:10:23;;;;;;;15.90;9.82;;;;;;;;;;10100241;28;20053;-73
2022/10/12 13:15:34;;;;;;;14.93;10.98;;;;;;;;;;10103584;28;20048;-69
2022/10/12 13:20:31;;;;;;;16.75;11.90;;;;;;;;;;10105403;28;20045;-71
2022/10/12 13:26:04;;;;;;;18.27;13.07;;;;;;;;;;10123677;28;20123;-71
2022/10/12 13:31:17;;;;;;;39.17;14.77;;;;;;;;;;10109863;28;20047;-70
2022/10/12 13:36:31;;;;;;;12.75;10.55;;;;;;;;;;10120665;28;20055;-70
2022/10/12 13:41:29;;;;;;;19.17;9.50;;;;;;;;;;10112467;28;20052;-70
2022/10/12 13:46:43;;;;;;;18.77;8.95;;;;;;;;;;10118455;28;20056;-70
2022/10/12 13:51:37;;;;;;;24.73;9.68;;;;;;;;;;10118421;28;20087;-71
2022/10/12 13:56:31;;;;;;;17.05;9.05;;;;;;;;;;10105849;28;20060;-72
2022/10/12 14:01:24;;;;;;;15.07;9.30;;;;;;;;;;10111801;28;20525;-71
2022/10/12 14:06:33;;;;;;;27.88;11.57;;;;;;;;;;10109546;28;20044;-70
2022/10/12 14:11:27;;;;;;;17.38;10.02;;;;;;;;;;10110022;28;20056;-70
2022/10/12 14:16:21;;;;;;;13.15;9.52;;;;;;;;;;10111230;28;20071;-71
2022/10/12 14:21:22;;;;;;;17.70;10.52;;;;;;;;;;10117538;28;20052;-71
2022/10/12 14:26:35;;;;;;;17.42;10.02;;;;;;;;;;10111125;28;20103;-72
2022/10/12 14:32:09;;;;;;;14.05;9.65;;;;;;;;;;10108604;28;20123;-73
2022/10/12 14:37:19;;;;;;;16.70;8.30;;;;;;;;;;10119070;28;20083;-72
2022/10/12 14:42:18;;;;;;;12.98;8.57;;;;;;;;;;10112642;28;20055;-72
2022/10/12 14:47:21;;;;;;;14.38;7.28;;;;;;;;;;10108480;28;20398;-71
2022/10/12 14:52:21;;;;;;;15.77;8.85;;;;;;;;;;10118194;28;20057;-72
2022/10/12 14:57:16;;;;;;;13.68;7.55;;;;;;;;;;10117014;28;20511;-72
2022/10/12 15:02:27;;;;;;;14.20;6.90;;;;;;;;;;10115992;28;20045;-72
2022/10/12 15:07:26;;;;;;;16.15;9.02;;;;;;;;;;10112998;28;20048;-71
2022/10/12 15:12:22;;;;;;;19.38;7.03;;;;;;;;;;10108029;28;20048;-75
2022/10/12 15:17:17;;;;;;;12.65;7.65;;;;;;;;;;10115672;28;20049;-74
2022/10/12 15:22:32;;;;;;;10.73;6.35;;;;;;;;;;10118933;28;20128;-73
2022/10/12 15:27:28;;;;;;;19.30;6.75;;;;;;;;;;10113552;28;20056;-73
2022/10/12 15:32:22;;;;;;;14.82;6.60;;;;;;;;;;10133532;28;20072;-72
2022/10/12 15:37:16;;;;;;;16.45;6.60;;;;;;;;;;10115181;28;20041;-73
2022/10/12 15:42:11;;;;;;;11.00;6.35;;;;;;;;;;10118226;28;20052;-72
2022/10/12 15:47:04;;;;;;;15.05;7.10;;;;;;;;;;10119070;28;20095;-73
2022/10/12 15:51:58;;;;;;;12.93;6.93;;;;;;;;;;10118380;28;20048;-71
2022/10/12 15:56:52;;;;;;;9.13;7.03;;;;;;;;;;10107433;28;20052;-72
2022/10/12 16:01:46;;;;;;;13.40;7.50;;;;;;;;;;10096395;28;21315;-72
2022/10/12 16:06:39;;;;;;;9.07;5.75;;;;;;;;;;10100868;28;20583;-74
2022/10/12 16:11:33;;;;;;;13.02;8.10;;;;;;;;;;10102696;28;20052;-73
2022/10/12 16:16:28;;;;;;;12.88;7.15;;;;;;;;;;10099082;28;20049;-73
2022/10/12 16:21:23;;;;;;;15.20;7.20;;;;;;;;;;10106196;28;20049;-73
2022/10/12 16:26:16;;;;;;;20.50;7.75;;;;;;;;;;10095466;28;20119;-73
2022/10/12 16:31:14;;;;;;;13.75;7.70;;;;;;;;;;10105006;28;20068;-73
2022/10/12 16:36:12;;;;;;;10.77;7.68;;;;;;;;;;10097700;28;20057;-73
2022/10/12 16:41:29;;;;;;;10.63;7.72;;;;;;;;;;10102803;28;20068;-73
2022/10/12 16:46:26;;;;;;;14.75;9.45;;;;;;;;;;10104203;28;20056;-73
2022/10/12 16:51:20;;;;;;;19.05;8.73;;;;;;;;;;10098420;28;20049;-73
2022/10/12 16:56:14;;;;;;;21.67;9.48;;;;;;;;;;10099297;28;20488;-74
2022/10/12 17:01:11;;;;;;;15.45;8.15;;;;;;;;;;10098330;28;20056;-74
2022/10/12 17:06:08;;;;;;;14.38;9.25;;;;;;;;;;10100072;28;20059;-75
2022/10/12 17:11:09;;;;;;;12.88;9.23;;;;;;;;;;10103429;28;20057;-76
2022/10/12 17:17:05;;;;;;;19.88;11.15;;;;;;;;;;10098854;28;20052;-72
2022/10/12 17:21:27;;;;;;;13.90;8.30;;;;;;;;;;10095266;28;20057;-73
2022/10/12 17:26:21;;;;;;;18.27;11.27;;;;;;;;;;10103150;28;20103;-73
2022/10/12 17:31:15;;;;;;;24.17;10.73;;;;;;;;;;10097796;28;20041;-71
2022/10/12 17:36:12;;;;;;;14.93;10.35;;;;;;;;;;10097120;28;20140;-73
2022/10/12 17:41:09;;;;;;;17.40;10.43;;;;;;;;;;10099611;28;20136;-73
2022/10/12 17:46:06;;;;;;;18.13;10.10;;;;;;;;;;10101477;28;20072;-73
2022/10/12 17:51:11;;;;;;;34.92;11.65;;;;;;;;;;10096131;28;20060;-72
2022/10/12 17:56:06;;;;;;;19.48;10.43;;;;;;;;;;10101180;28;20111;-72
2022/10/12 18:01:07;;;;;;;16.45;9.50;;;;;;;;;;10100310;28;20459;-67
2022/10/12 18:06:08;;;;;;;16.95;9.43;;;;;;;;;;10097105;28;20081;-67
2022/10/12 18:11:04;;;;;;;20.65;10.68;;;;;;;;;;10100676;28;20053;-69
2022/10/12 18:15:58;;;;;;;13.68;8.85;;;;;;;;;;10096610;28;20049;-68
2022/10/12 18:20:51;;;;;;;20.30;10.18;;;;;;;;;;10102046;28;20144;-69
2022/10/12 18:25:46;;;;;;;20.15;10.32;;;;;;;;;;10096965;28;20049;-69
2022/10/12 18:30:47;;;;;;;20.00;10.10;;;;;;;;;;10093316;28;20072;-69
2022/10/12 18:35:40;;;;;;;19.90;10.27;;;;;;;;;;10093452;28;20049;-68
2022/10/12 18:40:35;;;;;;;17.95;11.25;;;;;;;;;;10091503;28;20046;-69
2022/10/12 18:45:33;;;;;;;15.45;11.40;;;;;;;;;;10101357;28;20047;-69
2022/10/12 18:50:27;;;;;;;20.00;12.10;;;;;;;;;;10103087;28;20122;-69
2022/10/12 18:55:22;;;;;;;24.65;12.85;;;;;;;;;;10106091;28;20049;-68
2022/10/12 19:00:17;;;;;;;22.08;12.05;;;;;;;;;;10104233;28;20037;-67
2022/10/12 19:05:12;;;;;;;17.90;12.45;;;;;;;;;;10099607;28;20111;-68
2022/10/12 19:10:07;;;;;;;19.75;13.38;;;;;;;;;;10097733;28;20049;-69
2022/10/12 19:15:01;;;;;;;22.25;13.55;;;;;;;;;;10103945;28;20045;-68
2022/10/12 19:19:57;;;;;;;19.88;12.15;;;;;;;;;;10098518;28;20056;-70
2022/10/12 19:24:52;;;;;;;19.77;13.32;;;;;;;;;;10108035;28;20037;-72
2022/10/12 19:29:46;;;;;;;19.85;12.88;;;;;;;;;;10113523;28;20044;-69
2022/10/12 19:34:40;;;;;;;22.10;11.88;;;;;;;;;;10104196;28;20056;-69
2022/10/12 19:39:35;;;;;;;22.20;12.18;;;;;;;;;;10109442;28;20558;-69
2022/10/12 19:44:29;;;;;;;18.85;9.82;;;;;;;;;;10095187;28;20092;-70
2022/10/12 19:49:23;;;;;;;12.27;10.00;;;;;;;;;;10096541;28;20059;-69
2022/10/12 19:54:18;;;;;;;22.70;11.60;;;;;;;;;;10102642;28;20563;-69
2022/10/12 19:59:12;;;;;;;20.77;12.20;;;;;;;;;;10107415;28;20496;-70
2022/10/12 20:04:08;;;;;;;31.80;11.38;;;;;;;;;;10111600;28;20052;-74
2022/10/12 20:09:03;;;;;;;15.45;10.52;;;;;;;;;;10100751;28;20644;-73
2022/10/12 20:13:57;;;;;;;22.30;11.48;;;;;;;;;;10106233;28;20515;-72
2022/10/12 20:18:51;;;;;;;15.40;10.73;;;;;;;;;;10108071;28;20045;-72
2022/10/12 20:23:45;;;;;;;15.98;11.07;;;;;;;;;;10110897;28;20047;-73
2022/10/12 20:28:44;;;;;;;18.98;11.48;;;;;;;;;;10111669;28;20048;-73
2022/10/12 20:33:39;;;;;;;16.40;10.90;;;;;;;;;;10108052;28;20124;-73
2022/10/12 20:38:33;;;;;;;14.35;11.20;;;;;;;;;;10107781;28;20128;-74
2022/10/12 20:43:27;;;;;;;17.17;10.00;;;;;;;;;;10099690;28;20045;-73
2022/10/12 20:48:21;;;;;;;15.95;9.65;;;;;;;;;;10103645;28;20064;-73
2022/10/12 20:53:15;;;;;;;16.75;11.02;;;;;;;;;;10100335;28;20445;-74
2022/10/12 20:58:11;;;;;;;16.05;11.50;;;;;;;;;;10099150;28;20053;-73
2022/10/12 21:03:08;;;;;;;13.77;11.63;;;;;;;;;;10103314;28;20053;-73
2022/10/12 21:08:03;;;;;;;19.85;11.18;;;;;;;;;;10105097;28;20148;-73
2022/10/12 21:12:57;;;;;;;14.77;11.27;;;;;;;;;;10100813;28;20508;-73
2022/10/12 21:17:52;;;;;;;20.20;11.13;;;;;;;;;;10102585;28;20044;-73
2022/10/12 21:22:46;;;;;;;16.30;12.82;;;;;;;;;;10098526;28;20060;-72
2022/10/12 21:27:42;;;;;;;16.27;12.35;;;;;;;;;;10103731;28;20095;-72
2022/10/12 21:32:42;;;;;;;28.80;12.13;;;;;;;;;;10097412;28;20125;-72
2022/10/12 21:37:37;;;;;;;21.88;12.65;;;;;;;;;;10102973;28;20048;-72
2022/10/12 21:42:32;;;;;;;16.00;11.45;;;;;;;;;;10098911;28;20061;-73
2022/10/12 21:47:28;;;;;;;22.02;12.45;;;;;;;;;;10095964;28;20053;-72
2022/10/12 21:52:21;;;;;;;15.30;12.95;;;;;;;;;;10100561;28;20132;-73
2022/10/12 21:57:15;;;;;;;18.98;12.73;;;;;;;;;;10101436;28;20088;-72
2022/10/12 22:02:09;;;;;;;21.17;14.02;;;;;;;;;;10098064;28;20061;-73
2022/10/12 22:07:05;;;;;;;21.08;14.48;;;;;;;;;;10093699;28;20550;-73
2022/10/12 22:11:59;;;;;;;20.73;13.75;;;;;;;;;;10090565;28;20126;-73
2022/10/12 22:16:53;;;;;;;16.85;11.05;;;;;;;;;;10093796;28;20083;-72
2022/10/12 22:21:48;;;;;;;18.52;10.95;;;;;;;;;;10096727;28;20052;-74
2022/10/12 22:26:42;;;;;;;17.08;11.77;;;;;;;;;;10107919;28;20052;-73
2022/10/12 22:31:36;;;;;;;18.08;13.05;;;;;;;;;;10113106;28;20049;-75
2022/10/12 22:36:33;;;;;;;15.13;13.32;;;;;;;;;;10108830;28;20131;-74
2022/10/12 22:41:28;;;;;;;20.30;14.10;;;;;;;;;;10112891;28;20056;-74
2022/10/12 22:46:24;;;;;;;19.15;13.80;;;;;;;;;;10114398;28;20068;-74
2022/10/12 22:51:39;;;;;;;22.65;16.80;;;;;;;;;;10120043;28;20527;-74
2022/10/12 22:56:33;;;;;;;17.80;16.00;;;;;;;;;;10111096;28;20092;-74
2022/10/12 23:01:31;;;;;;;23.33;15.68;;;;;;;;;;10111557;28;20527;-74
2022/10/12 23:06:25;;;;;;;25.85;18.30;;;;;;;;;;10112687;28;20075;-72
2022/10/12 23:11:21;;;;;;;22.85;18.08;;;;;;;;;;10103685;28;20045;-73
2022/10/12 23:16:28;;;;;;;26.23;17.83;;;;;;;;;;10102390;28;20049;-73
2022/10/12 23:21:22;;;;;;;25.25;18.48;;;;;;;;;;10098068;28;20159;-73
2022/10/12 23:26:18;;;;;;;26.33;19.15;;;;;;;;;;10108016;28;20531;-73
2022/10/12 23:31:12;;;;;;;20.67;17.70;;;;;;;;;;10100856;28;20076;-74
2022/10/12 23:36:09;;;;;;;22.25;19.73;;;;;;;;;;10096214;28;20115;-73
2022/10/12 23:41:04;;;;;;;29.70;18.60;;;;;;;;;;10105810;28;20500;-73
2022/10/12 23:45:58;;;;;;;20.23;15.85;;;;;;;;;;10109499;28;20049;-73
2022/10/12 23:50:52;;;;;;;34.67;16.13;;;;;;;;;;10110379;28;20500;-73
2022/10/12 23:55:45;;;;;;;25.13;14.75;;;;;;;;;;10103152;28;20052;-73
